Tiempo atmosférico en la estación meteorológica de Moià, Barcelona (735 m.)



Fecha
DESCASC
Temp. máxima en grados centígrados (hora)
DESCASC
Temp. mínima en grados centígrados (hora)
DESCASC
Temp. media en grados centígrados
DESCASC
Racha de viento máxima en m/sg (hora)
DESCASC
Velocidad máxima media en intervalos de 10 minutos(hora)
DESCASC
Precipitaciones diarias en mm
DESCASC
Precipitaciones de 00:00 a 06:00 en mm
DESCASC
Precipitaciones de 06:00 a 12:00 en mm
DESCASC
Precipitaciones de 12:00 a 18:00 en mm
DESCASC
Precipitaciones de 18:00 a 24:00 en mm
DESCASC
13-01-2021 4.8 (15:00) -2.5 (07:20) 1.2 6.94 (13:10) 4.72 (12:50) 0 0 0 0 0
12-01-2021 2.3 (15:10) -4.7 (08:00) -1.2 6.94 (14:00) 4.17 (15:40) 0 0 0 0 0
11-01-2021 -0.1 (14:20) -3.1 (23:30) -1.6 4.17 (23:20) 2.5 (13:00) 0 0 0 0 0
10-01-2021 5.5 (14:20) -0.3 (22:50) 2.6 18.61 (04:10) 8.61 (00:10) 7.4 7.4 0 0 0
09-01-2021 1.7 (14:50) -1.1 (-00:0) 0.3 22.22 (15:00) 9.72 (19:10) 10.6 1.6 7 1.8 0.2
08-01-2021 4.5 (14:20) -4.9 (-00:0) -0.2 4.17 (23:59) 1.94 (12:20) 0 0 0 0 0
07-01-2021 2.6 (14:40) -2.4 (-00:0) 0.1 4.17 (12:30) 2.78 (12:40) 0 0 0 0 0
06-01-2021 5.1 (14:40) -5.6 (-00:0) -0.3 5 (13:50) 2.5 (13:10) 0 0 0 0 0
05-01-2021 -- (--) -- (--) -- -- (--) -- (--) -- -- -- -- 0
04-01-2021 -- (--) -- (--) -- -- (--) -- (--) -- -- -- -- --
03-01-2021 -- (--) -- (--) -- -- (--) -- (--) -- -- -- -- --
02-01-2021 -- (--) -- (--) -- -- (--) -- (--) -- -- -- -- --
01-01-2021 -- (--) -- (--) -- -- (--) -- (--) -- -- -- -- --
31-12-2020 -- (--) -- (--) -- -- (--) -- (--) -- 0 0 0 --
30-12-2020 5.6 (14:30) -1.7 (-00:0) 1.9 8.06 (16:10) 5.28 (16:00) 0 0 0 0 0
29-12-2020 6.7 (15:00) 0.2 (00:00) 3.4 12.5 (14:50) 6.94 (14:40) 0 0 0 0 0
28-12-2020 6.4 (14:40) 1 (00:00) 3.7 13.61 (15:40) 8.06 (13:20) 0 0 0 0 0
27-12-2020 3.6 (23:10) -2.5 (-00:0) 0.5 11.94 (23:30) 7.78 (23:30) 0 0 0 0 0
26-12-2020 5.8 (13:00) -1.4 (-00:0) 2.2 10.28 (03:50) 4.17 (05:30) 0 0 0 0 0
25-12-2020 7.2 (13:40) -1.3 (-00:0) 2.9 9.44 (13:40) 3.61 (14:10) 0 0 0 0 0
24-12-2020 8.3 (03:30) 3 (00:00) 5.7 6.11 (16:20) 3.61 (16:20) 0 0 0 0 0
23-12-2020 13.8 (12:10) 7 (00:00) 10.4 5 (14:00) 3.33 (14:00) 0 0 0 0 0
22-12-2020 16.1 (15:10) 4.8 (00:00) 10.5 5.28 (12:20) 3.61 (12:10) 0 0 0 0 0
21-12-2020 9.4 (14:10) 3.9 (00:00) 6.6 5.83 (13:20) 3.33 (13:20) 0 0 0 0 0
20-12-2020 9.5 (14:20) 6.2 (00:00) 7.8 5 (09:30) 2.78 (09:30) 0.4 0.4 0 0 0
19-12-2020 12.6 (14:10) 6.6 (00:00) 9.6 6.39 (13:50) 3.89 (13:50) 0 0 0 0 0
18-12-2020 10.4 (13:40) 8.9 (00:00) 9.6 3.89 (17:50) 1.67 (14:50) 32.4 14 5.8 12.6 0
17-12-2020 14.4 (12:30) 5.9 (00:00) 10.1 4.44 (01:00) 1.94 (00:50) 3.2 0 0 0 3.2

Gráficas

Temp. máximas Temp. mínimas Temp. medias Precipitaciones Rachas de viento máximas Velocidades máximas media en intervalos de 10 minutos

Datos horarios

Fecha y hora oficial Temperatura (ºC) Velocidad del viento (km/h) Dirección del viento Racha (km/h) Dirección de racha Precipitación (mm) Presión (hPa) Tendencia (hPa) Humedad (%)
2021-01-15 23:00:00 1.5 5 Nordeste 16 Este 0 -- -- 95
2021-01-15 22:00:00 2.4 8 Oeste 16 Oeste 0 -- -- 95
2021-01-15 21:00:00 2.3 4 Nordeste 8 Nordeste 0 -- -- 93
2021-01-15 20:00:00 2.9 4 Nordeste 10 Nordeste 0 -- -- 89
2021-01-15 19:00:00 3 4 Nordeste 8 Nordeste 0 -- -- 82
2021-01-15 18:00:00 4 2 Este 6 Sudoeste 0 -- -- 76
2021-01-15 17:00:00 7.4 2 Sudoeste 13 Oeste 0 -- -- 65
2021-01-15 16:00:00 7.5 7 Oeste 16 Oeste 0 -- -- 62
2021-01-15 15:00:00 7.4 6 Oeste 18 Sudoeste 0 -- -- 61
2021-01-15 14:00:00 6.9 9 Oeste 17 Oeste 0 -- -- 66
2021-01-15 13:00:00 4.9 9 Sudoeste 21 Oeste 0 -- -- 69
2021-01-15 12:00:00 4.3 13 Oeste 22 Oeste 0 -- -- 73
2021-01-15 11:00:00 5.7 6 Oeste 14 Oeste 0 -- -- 73
2021-01-15 10:00:00 3.3 0 Calma 10 Nordeste 0 -- -- 84
2021-01-15 09:00:00 -0.1 2 Oeste 8 Este 0 -- -- 97
2021-01-15 08:00:00 -1.9 4 Norte 9 Norte 0 -- -- 99
2021-01-15 07:00:00 -2.3 4 Noroeste 10 Norte 0 -- -- 98
2021-01-15 06:00:00 -2.6 4 Noroeste 10 Oeste 0 -- -- 99
2021-01-15 05:00:00 -2.1 0 Calma 8 Norte 0 -- -- 99
2021-01-15 04:00:00 -2.1 3 Noroeste 8 Oeste 0 -- -- 99
2021-01-15 03:00:00 -1.7 4 Noroeste 7 Oeste 0 -- -- 100
2021-01-15 02:00:00 -2 2 Noroeste 9 Oeste 0 -- -- 99
2021-01-15 01:00:00 -1.7 2 Nordeste 8 Oeste 0 -- -- 99
2021-01-15 00:00:00 -1.4 2 Noroeste 10 Oeste 0 -- -- 99
2021-01-14 23:00:00 -1.7 3 Oeste 8 Oeste 0 -- -- 98
2021-01-14 22:00:00 -1.2 2 Este 8 Este 0 -- -- 97
2021-01-14 21:00:00 -0.4 2 Nordeste 8 Este 0 -- -- 96
2021-01-14 20:00:00 -0.1 0 Calma 15 Oeste 0 -- -- 96
2021-01-14 19:00:00 -0.4 2 Noroeste 15 Oeste 0 -- -- 94
2021-01-14 18:00:00 0.6 5 Oeste 16 Oeste 0 -- -- 92
2021-01-14 17:00:00 2 10 Oeste 20 Oeste 0 -- -- 86
2021-01-14 16:00:00 2.9 9 Oeste 17 Oeste 0 -- -- 85
2021-01-14 15:00:00 2.8 11 Oeste 20 Oeste 0 -- -- 87
2021-01-14 14:00:00 2.4 12 Oeste 20 Oeste 0 -- -- 100
2021-01-14 13:00:00 0.4 5 Nordeste 13 Oeste 0 -- -- 100
2021-01-14 12:00:00 -0.9 6 Oeste 13 Oeste 0 -- -- 100
2021-01-14 11:00:00 -1.2 4 Noroeste 14 Oeste 0 -- -- 100
2021-01-14 10:00:00 -1.6 3 Oeste 13 Oeste 0 -- -- 100
2021-01-14 09:00:00 -1.8 4 Oeste 9 Sudoeste 0 -- -- 100
2021-01-14 08:00:00 -1.7 3 Oeste 9 Oeste 0 -- -- 100
2021-01-14 07:00:00 -1.3 4 Oeste 13 Oeste 0 -- -- 100
2021-01-14 06:00:00 -1.3 3 Oeste 11 Oeste 0 -- -- 100
2021-01-14 05:00:00 -0.9 5 Oeste 13 Oeste 0 -- -- 100
2021-01-14 04:00:00 -0.7 6 Oeste 11 Oeste 0 -- -- 100
2021-01-14 03:00:00 -0.2 4 Oeste 15 Oeste 0 -- -- 99
2021-01-14 02:00:00 0.3 0 Calma 16 Oeste 0 -- -- 99
2021-01-14 01:00:00 0.6 3 Oeste 8 Oeste 0 -- -- 99
2021-01-14 00:00:00 0.7 4 Oeste 9 Oeste 0 -- -- 98
2021-01-13 23:00:00 0.5 4 Oeste 12 Noroeste 0 -- -- 98
2021-01-13 22:00:00 -0.5 2 Noroeste 5 Norte 0 -- -- 97
2021-01-13 21:00:00 -0.4 3 Nordeste 7 Oeste 0 -- -- 95
2021-01-13 20:00:00 -0.1 3 Norte 8 Oeste 0 -- -- 93
2021-01-13 19:00:00 0.8 5 Oeste 15 Oeste 0 -- -- 91
2021-01-13 18:00:00 2.1 6 Oeste 13 Noroeste 0 -- -- 85
2021-01-13 17:00:00 3.9 8 Oeste 20 Oeste 0 -- -- 80
2021-01-13 16:00:00 4.4 14 Oeste 22 Oeste 0 -- -- 77
2021-01-13 15:00:00 4.8 13 Oeste 22 Oeste 0 -- -- 76
2021-01-13 14:00:00 3.4 12 Oeste 25 Oeste 0 -- -- 81
2021-01-13 13:00:00 2.3 16 Oeste 23 Oeste 0 -- -- 85
2021-01-13 12:00:00 1.9 4 Sur 15 Oeste 0 -- -- 98
2021-01-13 11:00:00 -0.6 7 Oeste 13 Oeste 0 -- -- 100
2021-01-13 10:00:00 -2.3 7 Oeste 14 Oeste 0 -- -- 99
2021-01-13 09:00:00 -2.4 3 Este 12 Oeste 0 -- -- 99
2021-01-13 08:00:00 -2.4 3 Oeste 11 Oeste 0 -- -- 98
2021-01-13 07:00:00 -2.4 3 Sudoeste 11 Este 0 -- -- 98
2021-01-13 06:00:00 -2.4 4 Sur 10 Oeste 0 -- -- 97
2021-01-13 05:00:00 -2.3 3 Sur 12 Este 0 -- -- 96
2021-01-13 04:00:00 -2.2 5 Oeste 12 Este 0 -- -- 96
2021-01-13 03:00:00 -2 4 Sudoeste 14 Oeste 0 -- -- 95
2021-01-13 02:00:00 -1.9 2 Este 9 Este 0 -- -- 95
2021-01-13 01:00:00 -2 2 Nordeste 10 Nordeste 0 -- -- 95
2021-01-13 00:00:00 -1.8 3 Este 11 Este 0 -- -- 94
2021-01-12 23:00:00 -1.5 5 Sudoeste 16 Sudoeste 0 -- -- 94
2021-01-12 22:00:00 -1.7 3 Sur 19 Noroeste 0 -- -- 93
2021-01-12 21:00:00 -1.9 4 Oeste 14 Oeste 0 -- -- 91
2021-01-12 20:00:00 -1.8 6 Oeste 15 Oeste 0 -- -- 88
2021-01-12 19:00:00 -1.5 3 Norte 10 Oeste 0 -- -- 84
2021-01-12 18:00:00 -0.4 6 Oeste 18 Oeste 0 -- -- 79
2021-01-12 17:00:00 1.5 10 Oeste 20 Oeste 0 -- -- 76
2021-01-12 16:00:00 2.2 13 Oeste 23 Oeste 0 -- -- 69
2021-01-12 15:00:00 2.2 12 Oeste 24 Oeste 0 -- -- 72
2021-01-12 14:00:00 1.9 12 Oeste 25 Oeste 0 -- -- 73
2021-01-12 13:00:00 -0.3 7 Oeste 15 Oeste 0 -- -- 83
2021-01-12 12:00:00 -0.7 11 Oeste 18 Oeste 0 -- -- 83
2021-01-12 11:00:00 -0.4 9 Oeste 17 Oeste 0 -- -- 87
2021-01-12 10:00:00 -1.8 6 Sur 13 Sudoeste 0 -- -- 95
2021-01-12 09:00:00 -3.9 6 Sudeste 11 Este 0 -- -- 100
2021-01-12 08:00:00 -4.7 2 Este 9 Este 0 -- -- 99
2021-01-12 07:00:00 -4.2 2 Nordeste 9 Oeste 0 -- -- 99
2021-01-12 06:00:00 -4.1 2 Oeste 11 Oeste 0 -- -- 100
2021-01-12 05:00:00 -3.9 3 Oeste 12 Oeste 0 -- -- 100
2021-01-12 04:00:00 -3.6 4 Oeste 12 Sudoeste 0 -- -- 100
2021-01-12 03:00:00 -3.5 3 Sur 10 Oeste 0 -- -- 100
2021-01-12 02:00:00 -3.4 3 Sur 9 Oeste 0 -- -- 100
2021-01-12 01:00:00 -3.2 4 Oeste 12 Oeste 0 -- -- 100
2021-01-12 00:00:00 -3.1 6 Oeste 15 Oeste 0 -- -- 99
2021-01-11 23:00:00 -3 4 Oeste 11 Oeste 0 -- -- 99
2021-01-11 22:00:00 -2.8 5 Oeste 12 Oeste 0 -- -- 99
2021-01-11 21:00:00 -2.5 4 Oeste 13 Oeste 0 -- -- 99
2021-01-11 20:00:00 -2.3 5 Oeste 13 Oeste 0 -- -- 99
2021-01-11 19:00:00 -1.9 7 Oeste 13 Oeste 0 -- -- 99
2021-01-11 18:00:00 -1.4 3 Oeste 9 Oeste 0 -- -- 99
2021-01-11 17:00:00 -1 3 Oeste 13 Oeste 0 -- -- 100
2021-01-11 16:00:00 -0.5 3 Noroeste 12 Nordeste 0 -- -- 100
2021-01-11 15:00:00 -0.3 3 Noroeste 12 Oeste 0 -- -- 100
2021-01-11 14:00:00 -0.3 5 Oeste 12 Oeste 0 -- -- 100
2021-01-11 13:00:00 -1.2 9 Oeste 14 Oeste 0 -- -- 100
2021-01-11 12:00:00 -1.1 9 Oeste 14 Oeste 0 -- -- 100
2021-01-11 11:00:00 -0.9 3 Noroeste 11 Oeste 0 -- -- 100
2021-01-11 10:00:00 -1.7 6 Oeste 9 Oeste 0 -- -- 100
2021-01-11 09:00:00 -1.9 2 Oeste 11 Oeste 0 -- -- 100
2021-01-11 08:00:00 -2 7 Oeste 13 Oeste 0 -- -- 100
2021-01-11 07:00:00 -1.6 4 Oeste 12 Oeste 0 -- -- 100
2021-01-11 06:00:00 -1.5 6 Oeste 12 Oeste 0 -- -- 99
2021-01-11 05:00:00 -1.4 4 Oeste 12 Sudoeste 0 -- -- 99
2021-01-11 04:00:00 -1.4 6 Oeste 13 Oeste 0 -- -- 99
2021-01-11 03:00:00 -1.2 6 Oeste 13 Oeste 0 -- -- 98
2021-01-11 02:00:00 -1 4 Oeste 10 Sudoeste 0 -- -- 98
2021-01-11 01:00:00 -0.5 4 Oeste 10 Oeste 0 -- -- 97
2021-01-11 00:00:00 -0.3 0 Calma 9 Oeste 0 -- -- 97
2021-01-10 23:00:00 -0.3 5 Oeste 15 Oeste 0 -- -- 97
2021-01-10 22:00:00 0.1 5 Oeste 14 Noroeste 0 -- -- 96
2021-01-10 21:00:00 0.5 7 Oeste 18 Oeste 0 -- -- 95
2021-01-10 20:00:00 1.3 7 Oeste 13 Oeste 0 -- -- 92
2021-01-10 19:00:00 2.5 5 Oeste 10 Oeste 0 -- -- 87
2021-01-10 18:00:00 3.3 2 Norte 16 Este 0 -- -- 76
2021-01-10 17:00:00 3.7 6 Este 14 Este 0 -- -- 75
2021-01-10 16:00:00 4.3 5 Este 14 Norte 0 -- -- 75
2021-01-10 15:00:00 4.7 7 Nordeste 27 Nordeste 0 -- -- 73
2021-01-10 14:00:00 4.6 11 Nordeste 43 Nordeste 0 -- -- 75
2021-01-10 13:00:00 3.8 10 Este 45 Este 0 -- -- 76
2021-01-10 12:00:00 5 19 Nordeste 53 Este 0 -- -- 75
2021-01-10 11:00:00 4 19 Nordeste 51 Nordeste 0 -- -- 81
2021-01-10 10:00:00 2.3 22 Nordeste 45 Nordeste 0 -- -- 83
2021-01-10 09:00:00 1.9 19 Nordeste 55 Nordeste 0 -- -- 84
2021-01-10 08:00:00 1.5 21 Nordeste 59 Nordeste 0 -- -- 86
2021-01-10 07:00:00 1.5 22 Nordeste 58 Nordeste 0 -- -- 88
2021-01-10 06:00:00 1.4 25 Nordeste 65 Nordeste 0 -- -- 89
2021-01-10 05:00:00 1.3 27 Nordeste 67 Nordeste 0 -- -- 90
2021-01-10 04:00:00 1.2 29 Nordeste 66 Nordeste 0 -- -- 91
2021-01-10 03:00:00 1 28 Nordeste 60 Nordeste 1.4 -- -- 94
2021-01-10 02:00:00 0.8 28 Nordeste 63 Nordeste 5.8 -- -- 95
2021-01-10 01:00:00 1.3 24 Nordeste 62 Nordeste 0.2 -- -- 91
2021-01-10 00:00:00 1.6 33 Nordeste 71 Norte 0 -- -- 88
2021-01-09 23:00:00 1.3 30 Nordeste 60 Nordeste 0 -- -- 90
2021-01-09 22:00:00 1.4 24 Nordeste 74 Nordeste 0 -- -- 89
2021-01-09 21:00:00 1.4 31 Nordeste 72 Norte 0 -- -- 91
2021-01-09 20:00:00 1.4 31 Nordeste 71 Nordeste 0 -- -- 92
2021-01-09 19:00:00 1.5 33 Nordeste 73 Nordeste 0.2 -- -- 92
2021-01-09 18:00:00 1.3 33 Nordeste 67 Este 0.8 -- -- 94
2021-01-09 17:00:00 1.7 27 Nordeste 65 Nordeste 0 -- -- 92
2021-01-09 16:00:00 1.6 31 Nordeste 71 Nordeste 0.2 -- -- 92
2021-01-09 15:00:00 1.7 30 Nordeste 80 Nordeste 0 -- -- 92
2021-01-09 14:00:00 1.5 26 Este 56 Este 0.4 -- -- 95
2021-01-09 13:00:00 1.2 22 Este 68 Nordeste 0.4 -- -- 95
2021-01-09 12:00:00 1 23 Nordeste 58 Nordeste 1 -- -- 96
2021-01-09 11:00:00 0.7 24 Nordeste 55 Este 2 -- -- 97
2021-01-09 10:00:00 0.5 21 Este 54 Este 1.4 -- -- 96
2021-01-09 09:00:00 0.7 22 Nordeste 58 Norte 1 -- -- 95
2021-01-09 08:00:00 0.7 21 Nordeste 53 Nordeste 0.8 -- -- 95
2021-01-09 07:00:00 0.5 18 Nordeste 48 Nordeste 0.8 -- -- 94
2021-01-09 06:00:00 -0.1 13 Nordeste 32 Nordeste 0.6 -- -- 94
2021-01-09 05:00:00 -0.9 7 Nordeste 25 Nordeste 0.6 -- -- 92
2021-01-09 04:00:00 -1 10 Nordeste 39 Este 0.4 -- -- 89
2021-01-09 03:00:00 -0.8 9 Nordeste 21 Este 0 -- -- 80
2021-01-09 02:00:00 0.6 7 Nordeste 27 Nordeste 0 -- -- 54
2021-01-09 01:00:00 0.7 8 Nordeste 25 Este 0 -- -- 56
2021-01-09 00:00:00 0.4 5 Nordeste 15 Nordeste 0 -- -- 65
2021-01-08 23:00:00 0.3 4 Noroeste 9 Norte 0 -- -- 75
2021-01-08 22:00:00 -0.1 2 Oeste 7 Noroeste 0 -- -- 78
2021-01-08 21:00:00 -0.1 2 Noroeste 5 Noroeste 0 -- -- 74
2021-01-08 20:00:00 0 0 Calma 5 Norte 0 -- -- 77
2021-01-08 19:00:00 0.1 2 Este 6 Sudeste 0 -- -- 78
2021-01-08 18:00:00 0.6 3 Este 11 Sur 0 -- -- 81
2021-01-08 17:00:00 2.5 0 Calma 6 Oeste 0 -- -- 74
2021-01-08 16:00:00 3 4 Oeste 9 Oeste 0 -- -- 73
2021-01-08 15:00:00 3.3 4 Oeste 10 Oeste 0 -- -- 70
2021-01-08 14:00:00 3.9 6 Oeste 11 Sudoeste 0 -- -- 66
2021-01-08 13:00:00 2.3 3 Sudoeste 10 Oeste 0 -- -- 79
2021-01-08 12:00:00 0.7 5 Sudoeste 9 Sudoeste 0 -- -- 85
2021-01-08 11:00:00 -1.4 2 Sudoeste 4 Sudeste 0 -- -- 89
2021-01-08 10:00:00 -3.3 2 Sudoeste 5 Sudoeste 0 -- -- 95
2021-01-08 09:00:00 -4.7 3 Este 4 Este 0 -- -- 95
2021-01-08 08:00:00 -4.5 0 Calma 4 Este 0 -- -- 95
2021-01-08 07:00:00 -4.3 0 Calma 4 Nordeste 0 -- -- 94
2021-01-08 06:00:00 -4.3 0 Calma 4 Sudeste 0 -- -- 94
2021-01-08 05:00:00 -4.2 0 Calma 5 Norte 0 -- -- 93
2021-01-08 04:00:00 -4 2 Norte 5 Nordeste 0 -- -- 92
2021-01-08 03:00:00 -3.6 0 Calma 4 Noroeste 0 -- -- 91
2021-01-08 02:00:00 -3.1 0 Calma 6 Nordeste 0 -- -- 90
2021-01-08 01:00:00 -2.5 2 Norte 5 Norte 0 -- -- 87
2021-01-08 00:00:00 -1.9 2 Norte 10 Noroeste 0 -- -- 86
2021-01-07 23:00:00 -1.6 4 Oeste 10 Oeste 0 -- -- 85
2021-01-07 22:00:00 -1.1 3 Noroeste 9 Oeste 0 -- -- 84
2021-01-07 21:00:00 -0.6 0 Calma 12 Oeste 0 -- -- 83
2021-01-07 20:00:00 -0.3 5 Oeste 13 Oeste 0 -- -- 83
2021-01-07 19:00:00 0.5 3 Oeste 12 Oeste 0 -- -- 83
2021-01-07 18:00:00 1.3 5 Oeste 11 Oeste 0 -- -- 84
2021-01-07 17:00:00 1.7 3 Oeste 9 Sudoeste 0 -- -- 81
2021-01-07 16:00:00 2.1 7 Oeste 12 Oeste 0 -- -- 79
2021-01-07 15:00:00 2.5 8 Oeste 14 Oeste 0 -- -- 75
2021-01-07 14:00:00 2.4 8 Oeste 12 Oeste 0 -- -- 77
2021-01-07 13:00:00 2.4 8 Oeste 15 Oeste 0 -- -- 78
2021-01-07 12:00:00 2.2 7 Oeste 10 Oeste 0 -- -- 81
2021-01-07 11:00:00 1.5 2 Sudoeste 5 Oeste 0 -- -- 88
2021-01-07 10:00:00 0.6 4 Oeste 6 Oeste 0 -- -- 93
2021-01-07 09:00:00 -0.1 0 Calma 8 Sur 0 -- -- 93
2021-01-07 08:00:00 -0.1 0 Calma 4 Sudeste 0 -- -- 90
2021-01-07 07:00:00 0.2 2 Este 9 Norte 0 -- -- 89
2021-01-07 06:00:00 0.3 4 Noroeste 11 Norte 0 -- -- 91
2021-01-07 05:00:00 -0.1 3 Noroeste 5 Noroeste 0 -- -- 91
2021-01-07 04:00:00 0 2 Nordeste 6 Este 0 -- -- 89
2021-01-07 03:00:00 -0.4 0 Calma 5 Este 0 -- -- 89
2021-01-07 02:00:00 -0.7 2 Nordeste 5 Sudoeste 0 -- -- 90
2021-01-07 01:00:00 -2.2 3 Nordeste 8 Sudeste 0 -- -- 88
2021-01-07 00:00:00 -1.6 3 Norte 8 Norte 0 -- -- 87
2021-01-06 23:00:00 -2.2 0 Calma 10 Sudeste 0 -- -- 84
2021-01-06 22:00:00 -1.5 2 Norte 5 Norte 0 -- -- 82
2021-01-06 21:00:00 -2.1 0 Calma 3 Sudeste 0 -- -- 83
2021-01-06 20:00:00 -1.6 0 Calma 6 Norte 0 -- -- 81
2021-01-06 19:00:00 -1.2 4 Norte 5 Noroeste 0 -- -- 78
2021-01-06 18:00:00 0.6 2 Norte 10 Oeste 0 -- -- 69
2021-01-06 17:00:00 3.8 7 Oeste 15 Oeste 0 -- -- 58
2021-01-06 16:00:00 4.7 8 Oeste 15 Oeste 0 -- -- 57
2021-01-06 15:00:00 4.9 8 Oeste 16 Oeste 0 -- -- 57
2021-01-06 14:00:00 4.3 8 Oeste 18 Oeste 0 -- -- 59
2021-01-06 13:00:00 3.9 8 Oeste 14 Oeste 0 -- -- 66
2021-01-06 12:00:00 3.7 5 Oeste 8 Oeste 0 -- -- 64
2021-01-06 11:00:00 1.7 2 Este 5 Este 0 -- -- 78
2021-01-06 10:00:00 -2 2 Sudeste 5 Este 0 -- -- 90
2021-01-06 09:00:00 -4.3 0 Calma 6 Norte 0 -- -- 96
2021-01-06 08:00:00 -5.6 0 Calma 5 Este 0 -- -- 94
2021-01-06 07:00:00 -4.3 2 Nordeste 6 Norte 0 -- -- 95
2021-01-06 06:00:00 -4.1 2 Noroeste 5 Norte 0 -- -- 94
2021-01-06 05:00:00 -4.2 3 Norte 6 Norte 0 -- -- 93
2021-01-06 04:00:00 -4.3 2 Nordeste 5 Norte 0 -- -- 94
2021-01-06 03:00:00 -4 2 Norte 6 Nordeste 0 -- -- 93
2021-01-06 02:00:00 -4 3 Norte 5 Nordeste 0 -- -- 92
2021-01-06 01:00:00 -3.9 0 Calma 5 Norte 0 -- -- 90
2021-01-06 00:00:00 -3.2 2 Noroeste 5 Oeste 0 -- -- 89
2021-01-05 23:00:00 -2.7 3 Norte 6 Norte 0 -- -- 87
2021-01-05 22:00:00 -2.3 3 Nordeste 7 Nordeste 0 -- -- 89
2021-01-05 21:00:00 -2.5 3 Norte 5 Norte 0 -- -- 88
2021-01-05 20:00:00 -1.7 0 Calma 8 Norte 0 -- -- 85
2021-01-05 19:00:00 -1.3 2 Noroeste 11 Oeste 0 -- -- 82
2021-01-05 18:00:00 -0.1 6 Noroeste 17 Oeste 0 -- -- 76
2021-01-05 17:00:00 2.9 9 Oeste 20 Sudoeste 0 -- -- 68
2021-01-05 16:00:00 3.5 13 Sudoeste 20 Sudoeste 0 -- -- 64
2021-01-05 15:00:00 3.6 10 Sudoeste 16 Sudoeste 0.2 -- -- 63
2021-01-05 14:00:00 -- 8 Oeste -- -- -- -- -- --
2021-01-05 13:00:00 -- -- -- -- -- -- -- -- --
2021-01-05 12:00:00 -- -- -- -- -- -- -- -- --
2021-01-05 11:00:00 -- -- -- -- -- -- -- -- --
2021-01-05 10:00:00 -- -- -- -- -- -- -- -- --
2021-01-05 09:00:00 -- -- -- -- -- -- -- -- --
2021-01-05 08:00:00 -- -- -- -- -- -- -- -- --
2021-01-05 07:00:00 -- -- -- -- -- -- -- -- --
2021-01-05 06:00:00 -- -- -- -- -- -- -- -- --
2021-01-05 05:00:00 -- -- -- -- -- -- -- -- --
2021-01-05 04:00:00 -- -- -- -- -- -- -- -- --
2021-01-05 03:00:00 -- -- -- -- -- -- -- -- --
2021-01-05 02:00:00 -- -- -- -- -- -- -- -- --
2021-01-05 01:00:00 -- -- -- -- -- -- -- -- --
2021-01-05 00:00:00 -- -- -- -- -- -- -- -- --
2021-01-04 23:00:00 -- -- -- -- -- -- -- -- --
2021-01-04 22:00:00 -- -- -- -- -- -- -- -- --
2021-01-04 21:00:00 -- -- -- -- -- -- -- -- --
2021-01-04 20:00:00 -- -- -- -- -- -- -- -- --
2021-01-04 19:00:00 -- -- -- -- -- -- -- -- --
2021-01-04 18:00:00 -- -- -- -- -- -- -- -- --
2021-01-04 17:00:00 -- -- -- -- -- -- -- -- --
2021-01-04 16:00:00 -- -- -- -- -- -- -- -- --
2021-01-04 15:00:00 -- -- -- -- -- -- -- -- --
2021-01-04 14:00:00 -- -- -- -- -- -- -- -- --
2021-01-04 13:00:00 -- -- -- -- -- -- -- -- --
2021-01-04 12:00:00 -- -- -- -- -- -- -- -- --
2021-01-04 11:00:00 -- -- -- -- -- -- -- -- --
2021-01-04 10:00:00 -- -- -- -- -- -- -- -- --
2021-01-04 09:00:00 -- -- -- -- -- -- -- -- --
2021-01-04 08:00:00 -- -- -- -- -- -- -- -- --
2021-01-04 07:00:00 -- -- -- -- -- -- -- -- --
2021-01-04 06:00:00 -- -- -- -- -- -- -- -- --
2021-01-04 05:00:00 -- -- -- -- -- -- -- -- --
2021-01-04 04:00:00 -- -- -- -- -- -- -- -- --
2021-01-04 03:00:00 -- -- -- -- -- -- -- -- --
2021-01-04 02:00:00 -- -- -- -- -- -- -- -- --
2021-01-04 01:00:00 -- -- -- -- -- -- -- -- --
2021-01-04 00:00:00 -- -- -- -- -- -- -- -- --
2021-01-03 23:00:00 -- -- -- -- -- -- -- -- --
2021-01-03 22:00:00 -- -- -- -- -- -- -- -- --
2021-01-03 21:00:00 -- -- -- -- -- -- -- -- --
2021-01-03 20:00:00 -- -- -- -- -- -- -- -- --
2021-01-03 19:00:00 -- -- -- -- -- -- -- -- --
2021-01-03 18:00:00 -- -- -- -- -- -- -- -- --
2021-01-03 17:00:00 -- -- -- -- -- -- -- -- --
2021-01-03 16:00:00 -- -- -- -- -- -- -- -- --
2021-01-03 15:00:00 -- -- -- -- -- -- -- -- --
2021-01-03 14:00:00 -- -- -- -- -- -- -- -- --
2021-01-03 13:00:00 -- -- -- -- -- -- -- -- --
2021-01-03 12:00:00 -- -- -- -- -- -- -- -- --
2021-01-03 11:00:00 -- -- -- -- -- -- -- -- --
2021-01-03 10:00:00 -- -- -- -- -- -- -- -- --
2021-01-03 09:00:00 -- -- -- -- -- -- -- -- --
2021-01-03 08:00:00 -- -- -- -- -- -- -- -- --
2021-01-03 07:00:00 -- -- -- -- -- -- -- -- --
2021-01-03 06:00:00 -- -- -- -- -- -- -- -- --
2021-01-03 05:00:00 -- -- -- -- -- -- -- -- --
2021-01-03 04:00:00 -- -- -- -- -- -- -- -- --
2021-01-03 03:00:00 -- -- -- -- -- -- -- -- --
2021-01-03 02:00:00 -- -- -- -- -- -- -- -- --
2021-01-03 01:00:00 -- -- -- -- -- -- -- -- --
2021-01-03 00:00:00 -- -- -- -- -- -- -- -- --
2021-01-02 23:00:00 -- -- -- -- -- -- -- -- --
2021-01-02 22:00:00 -- -- -- -- -- -- -- -- --
2021-01-02 21:00:00 -- -- -- -- -- -- -- -- --
2021-01-02 20:00:00 -- -- -- -- -- -- -- -- --
2021-01-02 19:00:00 -- -- -- -- -- -- -- -- --
2021-01-02 18:00:00 -- -- -- -- -- -- -- -- --
2021-01-02 17:00:00 -- -- -- -- -- -- -- -- --
2021-01-02 16:00:00 -- -- -- -- -- -- -- -- --
2021-01-02 15:00:00 -- -- -- -- -- -- -- -- --
2021-01-02 14:00:00 -- -- -- -- -- -- -- -- --